sensor_id;sensor_type;location;lat;lon;timestamp;P1;P2;P0
76330;PMS7003;65148;51.912;15.570;2023-03-01T00:10:37;32;28;18
76330;PMS7003;65148;51.912;15.570;2023-03-01T00:25:42;23;16;5
76330;PMS7003;65148;51.912;15.570;2023-03-01T00:41:04;29;25;14
76330;PMS7003;65148;51.912;15.570;2023-03-01T00:56:07;42;36;22
76330;PMS7003;65148;51.912;15.570;2023-03-01T01:11:10;31;29;20
76330;PMS7003;65148;51.912;15.570;2023-03-01T01:41:34;28;25;17
76330;PMS7003;65148;51.912;15.570;2023-03-01T01:56:37;31;27;18
76330;PMS7003;65148;51.912;15.570;2023-03-01T02:11:43;29;25;17
76330;PMS7003;65148;51.912;15.570;2023-03-01T02:26:48;21;18;11
76330;PMS7003;65148;51.912;15.570;2023-03-01T02:42:06;25;19;13
76330;PMS7003;65148;51.912;15.570;2023-03-01T02:57:11;19;15;10
76330;PMS7003;65148;51.912;15.570;2023-03-01T03:12:13;24;20;14
76330;PMS7003;65148;51.912;15.570;2023-03-01T03:27:14;22;15;13
76330;PMS7003;65148;51.912;15.570;2023-03-01T03:42:35;19;17;11
76330;PMS7003;65148;51.912;15.570;2023-03-01T03:57:39;26;19;12
76330;PMS7003;65148;51.912;15.570;2023-03-01T04:12:42;16;13;6
76330;PMS7003;65148;51.912;15.570;2023-03-01T04:43:07;24;23;15
76330;PMS7003;65148;51.912;15.570;2023-03-01T04:58:09;32;27;17
76330;PMS7003;65148;51.912;15.570;2023-03-01T05:13:10;43;32;22
76330;PMS7003;65148;51.912;15.570;2023-03-01T05:43:42;44;38;25
76330;PMS7003;65148;51.912;15.570;2023-03-01T05:58:45;58;47;28
76330;PMS7003;65148;51.912;15.570;2023-03-01T06:13:48;57;46;30
76330;PMS7003;65148;51.912;15.570;2023-03-01T06:44:13;64;49;30
76330;PMS7003;65148;51.912;15.570;2023-03-01T06:59:14;46;42;28
76330;PMS7003;65148;51.912;15.570;2023-03-01T07:14:17;52;41;27
76330;PMS7003;65148;51.912;15.570;2023-03-01T07:29:20;56;45;30
76330;PMS7003;65148;51.912;15.570;2023-03-01T07:44:43;67;51;32
76330;PMS7003;65148;51.912;15.570;2023-03-01T07:59:44;45;40;27
76330;PMS7003;65148;51.912;15.570;2023-03-01T08:14:47;30;25;16
76330;PMS7003;65148;51.912;15.570;2023-03-01T08:29:48;56;45;27
76330;PMS7003;65148;51.912;15.570;2023-03-01T08:45:12;56;46;29
76330;PMS7003;65148;51.912;15.570;2023-03-01T09:00:18;33;28;18
76330;PMS7003;65148;51.912;15.570;2023-03-01T09:15:20;33;28;19
76330;PMS7003;65148;51.912;15.570;2023-03-01T09:30:21;17;14;12
76330;PMS7003;65148;51.912;15.570;2023-03-01T09:45:40;30;25;16
76330;PMS7003;65148;51.912;15.570;2023-03-01T10:00:46;28;24;15
76330;PMS7003;65148;51.912;15.570;2023-03-01T10:15:52;32;27;17
76330;PMS7003;65148;51.912;15.570;2023-03-01T10:31:22;30;24;18
76330;PMS7003;65148;51.912;15.570;2023-03-01T10:46:35;25;23;16
76330;PMS7003;65148;51.912;15.570;2023-03-01T11:01:37;36;31;20
76330;PMS7003;65148;51.912;15.570;2023-03-01T11:17:15;33;29;19
76330;PMS7003;65148;51.912;15.570;2023-03-01T11:32:16;21;18;12
76330;PMS7003;65148;51.912;15.570;2023-03-01T11:47:29;14;13;9
76330;PMS7003;65148;51.912;15.570;2023-03-01T12:02:49;12;12;8
76330;PMS7003;65148;51.912;15.570;2023-03-01T13:49:46;12;10;6
76330;PMS7003;65148;51.912;15.570;2023-03-01T14:05:44;51;42;25
76330;PMS7003;65148;51.912;15.570;2023-03-01T14:20:55;24;20;13
76330;PMS7003;65148;51.912;15.570;2023-03-01T14:36:27;16;15;10
76330;PMS7003;65148;51.912;15.570;2023-03-01T14:51:30;81;61;34
76330;PMS7003;65148;51.912;15.570;2023-03-01T15:06:35;23;20;14
76330;PMS7003;65148;51.912;15.570;2023-03-01T15:22:12;21;18;11
76330;PMS7003;65148;51.912;15.570;2023-03-01T15:52:33;15;13;10
76330;PMS7003;65148;51.912;15.570;2023-03-01T16:07:52;15;9;7
76330;PMS7003;65148;51.912;15.570;2023-03-01T16:22:55;17;15;12
76330;PMS7003;65148;51.912;15.570;2023-03-01T16:38:00;22;21;13
76330;PMS7003;65148;51.912;15.570;2023-03-01T16:53:01;42;36;24
76330;PMS7003;65148;51.912;15.570;2023-03-01T17:08:18;62;46;28
76330;PMS7003;65148;51.912;15.570;2023-03-01T17:23:19;49;40;26
76330;PMS7003;65148;51.912;15.570;2023-03-01T17:38:21;46;41;27
76330;PMS7003;65148;51.912;15.570;2023-03-01T17:53:22;71;55;34
76330;PMS7003;65148;51.912;15.570;2023-03-01T18:08:47;64;47;29
76330;PMS7003;65148;51.912;15.570;2023-03-01T18:23:52;69;55;32
76330;PMS7003;65148;51.912;15.570;2023-03-01T18:38:54;48;41;28
76330;PMS7003;65148;51.912;15.570;2023-03-01T18:53:56;70;53;34
76330;PMS7003;65148;51.912;15.570;2023-03-01T19:09:16;63;49;31
76330;PMS7003;65148;51.912;15.570;2023-03-01T19:24:17;80;61;37
76330;PMS7003;65148;51.912;15.570;2023-03-01T19:39:19;55;44;29
76330;PMS7003;65148;51.912;15.570;2023-03-01T19:54:20;94;69;43
76330;PMS7003;65148;51.912;15.570;2023-03-01T20:09:50;97;73;43
76330;PMS7003;65148;51.912;15.570;2023-03-01T20:24:51;98;70;42
76330;PMS7003;65148;51.912;15.570;2023-03-01T20:39:53;98;73;43
76330;PMS7003;65148;51.912;15.570;2023-03-01T20:54:55;77;58;36
76330;PMS7003;65148;51.912;15.570;2023-03-01T21:10:21;91;68;38
76330;PMS7003;65148;51.912;15.570;2023-03-01T21:25:24;83;63;39
76330;PMS7003;65148;51.912;15.570;2023-03-01T21:40:35;67;48;34
76330;PMS7003;65148;51.912;15.570;2023-03-01T21:55:36;56;46;29
76330;PMS7003;65148;51.912;15.570;2023-03-01T22:10:56;52;44;27
76330;PMS7003;65148;51.912;15.570;2023-03-01T22:25:57;39;30;20
76330;PMS7003;65148;51.912;15.570;2023-03-01T22:40:59;55;48;31
76330;PMS7003;65148;51.912;15.570;2023-03-01T22:56:11;58;45;27
76330;PMS7003;65148;51.912;15.570;2023-03-01T23:11:28;29;23;15
76330;PMS7003;65148;51.912;15.570;2023-03-01T23:26:30;35;27;17
76330;PMS7003;65148;51.912;15.570;2023-03-01T23:41:33;31;24;15
76330;PMS7003;65148;51.912;15.570;2023-03-01T23:56:35;42;33;21
